Southwest Washington Regional Airport
KKLS : now visible

Airfield :











YOU CAN JOIN US ON...

 
LOGIN :

Register | Disclaimer

   EN    FR    IT 

 









Legend :    VFR   Marginal VFR   IFR   Intensive IFR   Very Intensive IFR
Visi :
Ceiling :
>= 8 km
>= 3000ft
5 to 8 km
1000 to 3000 ft
1500m to 5 km
500 to 1000 ft
800 to 1500m
200 to 500 ft
< 800m
< 200 ft
Symbols :   Thunderstorms  Fog  Heavy snow  Heavy precipitations  Wind > 20 kt






- Airport Elevation : 20 ft


KKLS - Southwest Washington Regional

CURRENT METAR :
  • 180730Z AUTO 00000KT 3/4SM BR OVC002 02/02 A3042 RMK AO2 FZRANO

EXPIRED METARs :
  • 180709Z AUTO 00000KT 10SM BKN002 02/02 A3042 RMK AO2 FZRANO
  • 180656Z AUTO 00000KT 10SM SCT004 02/02 A3042 RMK AO2 SLP306 T00220017 FZRANO
  • 180556Z AUTO 00000KT 10SM BKN035 03/03 A3043 RMK AO2 SLP307 60000 T00330028 10072 20033 53002
  • 180456Z AUTO 00000KT 10SM BKN048 04/03 A3042 RMK AO2 SLP306 T00390033

TAF N/A



MET'MAP, your aeronautical weather chart ! - Copyright ORBIFLY December 2007 - Disclaimer

ORBIFLY MET'MAP TEAM :

Programming & Development : Alexandra Zaïnal
Concept & original design : Baudouin d'Aumeries
Assistance for programming : Marc-Olivier Méhu
Technical & hardware support : Manuel Goepfert

Contact : metmap@orbifly.com




SOURCES & CREDITS :

   NOAA       Earth
Advisory